Terminal Aerodrome Forecast
Issued by NWS Corpus Christi, TX

Current Version | Previous Version | Text Only | Print | Product List | Glossary Off
Versions: 1 2 3 4 5 6 7 8 9 10 11 12 13 14 15 16 17 18 19 20 21 22 23 24 25 26 27

000
FTUS44 KCRP 262348 CCA
TAFVCT
TAF COR
KVCT 262348Z 2700/2724 13010KT 3SM BR OVC007
      TEMPO 2700/2701 2SM BR OVC006
     FM270800 35008KT 4SM BR BKN007 BKN012 PROB30 2709/2712
      VRB15G30KT 5SM TSRA BR BKN014CB
     FM271200 35010KT 5SM BR BKN014
     FM271500 34009KT P6SM SKC=

USA.gov is the U.S. government's official web portal to all federal, state and local government web resources and services.